Time;durP1;ratioP1;P1;durP2;ratioP2;P2;SDS_P1;SDS_P2;PMS_P1;PMS_P2;Temp;Humidity;BMP_temperature;BMP_pressure;BME280_temperature;BME280_humidity;BME280_pressure;Samples;Min_cycle;Max_cycle;Signal;HPM_P1;HPM_P2
2024/03/07 00:00:18;;;;;;;18.35;10.15;;;;;;;9.29;100.00;100194.97;5134338;27;20044;-44
2024/03/07 00:02:48;;;;;;;18.85;10.13;;;;;;;9.44;100.00;100199.41;5134391;27;20053;-46
2024/03/07 00:05:20;;;;;;;19.67;10.25;;;;;;;9.49;100.00;100201.84;5134426;27;20055;-44
2024/03/07 00:07:49;;;;;;;13.80;9.10;;;;;;;9.36;100.00;100200.78;5134494;27;20039;-45
2024/03/07 00:10:17;;;;;;;17.58;10.10;;;;;;;9.30;100.00;100202.00;5134378;27;20144;-45
2024/03/07 00:12:47;;;;;;;17.98;10.57;;;;;;;9.37;100.00;100203.38;5133796;27;20055;-46
2024/03/07 00:15:17;;;;;;;18.05;10.27;;;;;;;9.51;100.00;100207.94;5134367;27;20658;-46
2024/03/07 00:17:46;;;;;;;16.42;9.70;;;;;;;9.42;100.00;100209.31;5134406;27;20095;-47
2024/03/07 00:20:15;;;;;;;18.95;9.65;;;;;;;9.41;100.00;100209.41;5133846;27;20541;-44
2024/03/07 00:22:45;;;;;;;15.18;9.43;;;;;;;9.46;99.14;100207.34;5134201;27;20047;-46
2024/03/07 00:25:19;;;;;;;16.20;10.10;;;;;;;9.59;100.00;100208.34;5134437;27;20751;-46
2024/03/07 00:27:47;;;;;;;16.05;8.88;;;;;;;9.60;99.88;100204.75;5134019;27;20051;-45
2024/03/07 00:30:18;;;;;;;16.90;9.32;;;;;;;9.69;98.58;100203.38;5133576;27;20051;-46
2024/03/07 00:32:47;;;;;;;13.45;8.88;;;;;;;9.69;97.00;100201.56;5133902;27;20397;-46
2024/03/07 00:35:16;;;;;;;18.45;9.50;;;;;;;9.68;96.42;100199.84;5133721;27;20484;-45
2024/03/07 00:37:46;;;;;;;14.93;8.88;;;;;;;9.71;97.52;100202.31;5133712;27;20043;-45
2024/03/07 00:40:14;;;;;;;18.33;8.93;;;;;;;9.49;100.00;100193.84;5133680;27;20069;-44
2024/03/07 00:42:43;;;;;;;14.50;9.13;;;;;;;9.56;100.00;100187.25;5133198;27;20162;-44
2024/03/07 00:45:11;;;;;;;14.15;8.32;;;;;;;9.56;98.95;100205.03;5133489;27;20043;-45
2024/03/07 00:47:40;;;;;;;15.02;8.80;;;;;;;9.42;100.00;100197.78;5133247;27;20047;-44
2024/03/07 00:50:09;;;;;;;15.23;9.20;;;;;;;9.50;100.00;100197.38;5133374;27;20130;-46
2024/03/07 00:52:38;;;;;;;15.43;9.15;;;;;;;9.59;100.00;100197.72;5132962;27;20095;-46
2024/03/07 00:55:09;;;;;;;16.00;9.50;;;;;;;9.65;100.00;100200.03;5133525;27;20564;-46
2024/03/07 00:57:37;;;;;;;14.88;9.32;;;;;;;9.65;98.16;100197.38;5133256;27;20051;-44
2024/03/07 01:00:11;;;;;;;16.58;8.95;;;;;;;9.51;96.79;100202.59;5133113;27;20047;-44
2024/03/07 01:02:43;;;;;;;16.25;9.13;;;;;;;9.42;96.61;100195.13;5132462;27;20099;-45
2024/03/07 01:05:13;;;;;;;13.32;8.77;;;;;;;9.43;96.39;100202.16;5132902;27;20143;-44
2024/03/07 01:07:42;;;;;;;14.38;8.55;;;;;;;9.27;92.37;100196.88;5136471;27;20047;-45
2024/03/07 01:10:13;;;;;;;14.73;8.77;;;;;;;9.26;93.49;100203.09;5138324;27;20054;-44
2024/03/07 01:12:43;;;;;;;13.90;8.20;;;;;;;9.28;93.45;100197.72;5134754;27;20452;-44
2024/03/07 01:15:11;;;;;;;14.05;8.38;;;;;;;9.33;92.78;100195.66;5132923;27;20485;-43
2024/03/07 01:17:40;;;;;;;14.50;8.77;;;;;;;9.38;93.35;100204.25;5132800;27;20433;-44
2024/03/07 01:20:11;;;;;;;14.43;7.97;;;;;;;9.22;89.92;100203.38;5132463;27;20047;-45
2024/03/07 01:22:40;;;;;;;14.70;8.77;;;;;;;9.12;90.57;100195.03;5132549;27;20054;-44
2024/03/07 01:25:08;;;;;;;14.90;8.07;;;;;;;9.05;89.99;100198.97;5132476;27;20094;-44
2024/03/07 01:27:37;;;;;;;12.73;7.60;;;;;;;9.02;90.07;100191.16;5132779;27;20455;-44
2024/03/07 01:30:07;;;;;;;14.13;7.93;;;;;;;9.00;91.38;100190.41;5132689;27;20061;-45
2024/03/07 01:32:36;;;;;;;13.75;8.50;;;;;;;8.88;91.35;100197.25;5132363;27;20468;-44
2024/03/07 01:35:07;;;;;;;13.32;8.27;;;;;;;8.92;91.86;100190.81;5132370;27;20051;-44
2024/03/07 01:37:35;;;;;;;13.13;7.60;;;;;;;8.82;89.73;100194.91;5131947;27;20047;-44
2024/03/07 01:40:05;;;;;;;13.45;7.80;;;;;;;8.94;91.55;100193.38;5132343;27;20380;-45
2024/03/07 01:42:33;;;;;;;12.18;7.55;;;;;;;9.10;90.79;100191.59;5132004;27;20047;-46
2024/03/07 01:45:03;;;;;;;13.98;8.23;;;;;;;9.01;89.50;100192.97;5131883;27;20043;-45
2024/03/07 01:47:31;;;;;;;12.25;7.68;;;;;;;9.02;88.68;100197.34;5132395;27;20069;-43
2024/03/07 01:50:00;;;;;;;13.63;7.85;;;;;;;8.85;88.43;100195.59;5132560;27;20154;-44
2024/03/07 01:52:29;;;;;;;14.10;8.18;;;;;;;8.74;88.95;100195.31;5131568;27;20074;-47
2024/03/07 01:54:58;;;;;;;12.13;6.70;;;;;;;8.52;90.99;100197.41;5131739;27;20096;-44
2024/03/07 01:57:26;;;;;;;13.25;7.82;;;;;;;8.59;91.24;100194.34;5132021;27;20128;-46
2024/03/07 01:59:55;;;;;;;13.70;8.10;;;;;;;8.76;91.77;100192.56;5131932;27;20047;-45
2024/03/07 02:02:25;;;;;;;14.05;7.75;;;;;;;8.73;91.24;100192.75;5132093;27;20384;-43
2024/03/07 02:04:54;;;;;;;14.30;7.57;;;;;;;8.65;91.23;100194.94;5132298;27;20440;-44
2024/03/07 02:07:23;;;;;;;16.23;7.93;;;;;;;8.77;91.19;100194.28;5131822;27;20047;-45
2024/03/07 02:09:59;;;;;;;12.35;7.55;;;;;;;8.56;91.36;100193.63;5131923;27;20092;-46
2024/03/07 02:12:29;;;;;;;13.52;7.75;;;;;;;8.79;91.45;100187.97;5131661;27;20096;-48
2024/03/07 02:14:58;;;;;;;13.07;7.82;;;;;;;8.91;89.62;100186.44;5131752;27;20424;-45
2024/03/07 02:17:28;;;;;;;13.32;7.43;;;;;;;8.66;90.77;100192.19;5132063;27;20054;-44
2024/03/07 02:19:56;;;;;;;13.15;7.75;;;;;;;8.67;89.71;100195.72;5131891;28;20491;-44
2024/03/07 02:22:26;;;;;;;13.85;7.85;;;;;;;8.75;89.01;100188.19;5131598;27;20111;-44
2024/03/07 02:24:55;;;;;;;14.13;7.45;;;;;;;8.48;90.10;100185.19;5131252;27;20551;-45
2024/03/07 02:27:23;;;;;;;12.10;7.35;;;;;;;8.47;90.59;100192.31;5131568;27;20491;-44
2024/03/07 02:29:52;;;;;;;12.55;7.32;;;;;;;8.47;90.79;100194.97;5132476;28;20046;-45
2024/03/07 02:32:20;;;;;;;12.35;7.13;;;;;;;8.34;91.38;100193.88;5131889;28;20179;-44
2024/03/07 02:34:49;;;;;;;12.55;7.20;;;;;;;8.30;90.82;100187.00;5132462;28;20039;-45
2024/03/07 02:37:18;;;;;;;13.05;7.70;;;;;;;8.37;90.66;100188.41;5131451;28;20083;-45
2024/03/07 02:39:47;;;;;;;12.70;7.68;;;;;;;8.28;90.93;100191.50;5131500;27;20432;-43
2024/03/07 02:42:16;;;;;;;12.77;7.32;;;;;;;8.34;90.54;100188.56;5131643;28;20092;-47
2024/03/07 02:44:44;;;;;;;13.73;7.22;;;;;;;8.32;89.36;100201.06;5131366;27;20173;-44
2024/03/07 02:47:12;;;;;;;12.07;7.10;;;;;;;8.12;90.64;100193.25;5131586;27;20043;-44
2024/03/07 02:49:40;;;;;;;14.13;7.28;;;;;;;8.00;91.12;100192.06;5131733;28;20081;-46
2024/03/07 02:52:10;;;;;;;12.50;7.38;;;;;;;8.03;90.42;100194.59;5131496;28;20446;-44
2024/03/07 02:54:38;;;;;;;12.38;7.10;;;;;;;8.06;88.99;100182.94;5131453;28;20476;-44
2024/03/07 02:57:07;;;;;;;11.70;7.03;;;;;;;8.00;90.57;100189.41;5135582;27;20047;-44
2024/03/07 02:59:36;;;;;;;11.85;7.22;;;;;;;8.07;89.72;100195.28;5135759;27;20070;-43
2024/03/07 03:02:05;;;;;;;13.50;7.10;;;;;;;8.11;88.91;100188.88;5134904;27;20133;-44
2024/03/07 03:04:34;;;;;;;11.63;5.97;;;;;;;8.15;87.38;100185.13;5135055;27;20047;-45
2024/03/07 03:07:02;;;;;;;11.07;6.47;;;;;;;8.00;87.81;100195.56;5135144;27;20048;-46
2024/03/07 03:09:33;;;;;;;11.27;6.68;;;;;;;8.03;88.62;100190.13;5135967;27;20400;-43
2024/03/07 03:12:01;;;;;;;12.60;6.80;;;;;;;8.10;87.61;100195.09;5135000;27;20498;-44
2024/03/07 03:14:31;;;;;;;11.27;6.75;;;;;;;7.98;87.85;100186.81;5134916;27;20047;-44
2024/03/07 03:16:59;;;;;;;10.55;6.40;;;;;;;7.95;86.16;100192.31;5135015;27;20176;-46
2024/03/07 03:19:28;;;;;;;10.20;6.20;;;;;;;8.08;86.12;100184.56;5134946;27;20423;-45
2024/03/07 03:21:56;;;;;;;10.48;6.63;;;;;;;7.84;88.20;100188.47;5135198;27;20047;-45
2024/03/07 03:24:25;;;;;;;11.40;6.32;;;;;;;7.82;88.11;100193.00;5134615;27;20047;-44
2024/03/07 03:26:53;;;;;;;10.52;6.22;;;;;;;7.90;87.90;100189.00;5134802;27;20476;-45
2024/03/07 03:29:22;;;;;;;11.05;6.30;;;;;;;7.86;87.16;100186.59;5134705;27;20047;-44
2024/03/07 03:31:51;;;;;;;10.23;6.00;;;;;;;7.84;87.76;100184.03;5134678;27;20089;-45
2024/03/07 03:34:20;;;;;;;9.80;6.03;;;;;;;7.99;86.42;100185.03;5134293;27;20639;-45
2024/03/07 03:36:49;;;;;;;10.15;5.95;;;;;;;7.82;87.14;100191.22;5134638;27;20047;-44
2024/03/07 03:39:20;;;;;;;10.18;6.18;;;;;;;7.92;86.29;100189.81;5134617;27;20039;-45
2024/03/07 03:41:48;;;;;;;8.82;5.57;;;;;;;7.95;86.73;100187.00;5134654;27;20380;-45
2024/03/07 03:44:17;;;;;;;10.02;5.57;;;;;;;7.92;85.90;100186.31;5134578;27;20078;-45
2024/03/07 03:46:46;;;;;;;9.68;5.45;;;;;;;7.82;86.58;100200.97;5134635;27;20043;-45
2024/03/07 03:49:18;;;;;;;8.90;5.45;;;;;;;7.83;86.07;100197.38;5134624;27;20062;-44
2024/03/07 03:51:47;;;;;;;9.95;5.40;;;;;;;7.77;86.09;100189.72;5134420;27;20043;-45
2024/03/07 03:54:16;;;;;;;9.18;5.38;;;;;;;7.88;85.84;100196.19;5133956;27;20056;-45
2024/03/07 03:56:44;;;;;;;8.38;5.38;;;;;;;7.73;86.54;100197.84;5134368;27;20051;-45
2024/03/07 03:59:12;;;;;;;8.55;5.35;;;;;;;7.81;86.35;100192.13;5134122;27;20051;-45
2024/03/07 04:01:41;;;;;;;8.85;5.47;;;;;;;7.81;85.89;100200.09;5134055;27;20047;-45
2024/03/07 04:04:09;;;;;;;9.20;5.57;;;;;;;7.67;86.48;100197.25;5134305;27;20043;-44
2024/03/07 04:06:39;;;;;;;10.63;5.70;;;;;;;7.68;86.17;100193.66;5133988;27;20043;-45
2024/03/07 04:09:08;;;;;;;10.38;5.88;;;;;;;7.67;86.87;100207.88;5133543;27;20051;-43
2024/03/07 04:11:36;;;;;;;10.45;5.40;;;;;;;7.67;87.10;100207.88;5133972;27;20132;-45
2024/03/07 04:14:04;;;;;;;10.15;5.57;;;;;;;7.59;87.75;100196.78;5134067;27;20043;-45
2024/03/07 04:16:33;;;;;;;10.80;6.40;;;;;;;7.73;87.63;100202.28;5134048;27;20589;-44
2024/03/07 04:19:01;;;;;;;9.70;5.32;;;;;;;7.86;87.24;100202.53;5134122;27;20130;-46
2024/03/07 04:21:29;;;;;;;11.95;6.18;;;;;;;7.68;88.61;100199.84;5134033;27;20039;-45
2024/03/07 04:23:59;;;;;;;10.60;5.88;;;;;;;7.74;88.83;100207.50;5133665;27;20058;-45
2024/03/07 04:26:27;;;;;;;10.38;5.88;;;;;;;7.89;87.88;100202.38;5133414;27;20122;-46
2024/03/07 04:28:56;;;;;;;10.15;5.80;;;;;;;7.84;88.28;100210.56;5134625;27;20047;-45
2024/03/07 04:31:24;;;;;;;8.93;5.35;;;;;;;7.64;87.94;100208.03;5134125;27;20039;-43
2024/03/07 04:33:52;;;;;;;11.63;6.00;;;;;;;7.72;88.34;100211.16;5133556;27;20043;-46
2024/03/07 04:36:20;;;;;;;8.88;5.63;;;;;;;7.74;87.60;100210.16;5133453;27;20047;-45
2024/03/07 04:38:49;;;;;;;9.98;6.38;;;;;;;7.63;88.38;100212.50;5133301;27;20058;-43
2024/03/07 04:41:18;;;;;;;11.82;6.50;;;;;;;7.59;88.27;100215.34;5133557;27;20047;-45
2024/03/07 04:43:47;;;;;;;10.23;6.10;;;;;;;7.69;88.36;100219.28;5133286;27;20072;-45
2024/03/07 04:46:15;;;;;;;11.65;6.38;;;;;;;7.66;88.38;100219.44;5133301;27;20595;-46
2024/03/07 04:48:43;;;;;;;11.07;6.25;;;;;;;7.65;88.71;100225.69;5133370;27;20393;-45
2024/03/07 04:51:11;;;;;;;11.25;6.43;;;;;;;7.62;88.24;100217.84;5133722;27;20404;-45
2024/03/07 04:53:41;;;;;;;13.30;7.05;;;;;;;7.67;88.73;100218.50;5133249;27;20047;-45
2024/03/07 04:56:10;;;;;;;10.90;6.25;;;;;;;7.62;88.88;100223.16;5133069;27;20039;-47
2024/03/07 04:58:40;;;;;;;11.25;6.18;;;;;;;7.58;89.46;100218.94;5133397;27;20115;-46
2024/03/07 05:01:08;;;;;;;11.02;6.28;;;;;;;7.51;90.90;100222.81;5133985;27;20051;-48
2024/03/07 05:03:36;;;;;;;11.63;6.53;;;;;;;7.39;91.14;100227.78;5134446;27;20043;-46
2024/03/07 05:06:05;;;;;;;12.25;6.55;;;;;;;7.42;90.61;100230.28;5132698;27;20070;-45
2024/03/07 05:08:33;;;;;;;10.65;6.25;;;;;;;7.26;91.49;100224.00;5132839;27;20047;-44
2024/03/07 05:11:01;;;;;;;11.73;6.72;;;;;;;7.27;91.51;100230.16;5132827;27;20070;-45
2024/03/07 05:13:31;;;;;;;12.85;6.68;;;;;;;7.30;91.89;100230.88;5132773;27;20492;-46
2024/03/07 05:16:01;;;;;;;14.43;7.03;;;;;;;7.41;90.88;100233.03;5132184;27;20527;-45
2024/03/07 05:18:29;;;;;;;13.10;7.03;;;;;;;7.20;92.04;100229.59;5132272;27;20046;-45
2024/03/07 05:21:08;;;;;;;13.15;6.57;;;;;;;7.18;92.13;100232.31;5132466;27;20083;-46
2024/03/07 05:23:37;;;;;;;10.07;6.22;;;;;;;7.36;90.91;100237.69;5132763;27;20064;-46
2024/03/07 05:26:06;;;;;;;10.60;6.35;;;;;;;7.37;92.17;100236.75;5132345;27;20043;-44
2024/03/07 05:28:34;;;;;;;11.18;6.35;;;;;;;7.15;93.80;100237.78;5132662;27;20043;-45
2024/03/07 05:31:05;;;;;;;14.25;7.32;;;;;;;7.17;94.06;100240.34;5132300;27;20047;-45
2024/03/07 05:33:33;;;;;;;12.48;7.30;;;;;;;7.31;92.89;100245.00;5132198;27;20070;-45
2024/03/07 05:36:14;;;;;;;11.63;6.72;;;;;;;7.43;92.35;100241.75;5132230;27;20067;-45
2024/03/07 05:38:43;;;;;;;11.63;6.93;;;;;;;7.26;92.89;100245.22;5132325;27;20092;-46
2024/03/07 05:41:12;;;;;;;12.98;7.07;;;;;;;7.22;93.22;100240.13;5132566;27;20043;-46
2024/03/07 05:43:41;;;;;;;11.48;6.97;;;;;;;7.06;93.76;100248.81;5132015;27;20043;-45
2024/03/07 05:46:12;;;;;;;12.25;6.95;;;;;;;7.12;95.19;100250.28;5132406;27;20046;-44
2024/03/07 05:48:40;;;;;;;14.13;6.45;;;;;;;7.21;94.15;100247.22;5131964;27;20546;-45
2024/03/07 05:51:10;;;;;;;12.23;7.22;;;;;;;7.06;92.69;100253.25;5132398;27;20043;-44
2024/03/07 05:53:38;;;;;;;12.10;6.70;;;;;;;7.17;92.47;100256.25;5132081;27;20047;-46
2024/03/07 05:56:09;;;;;;;11.00;6.57;;;;;;;7.23;91.82;100255.09;5132024;27;20058;-46
2024/03/07 05:58:38;;;;;;;10.63;6.07;;;;;;;7.15;91.55;100263.44;5132260;27;20043;-45
2024/03/07 06:01:08;;;;;;;10.23;6.80;;;;;;;7.33;90.86;100259.91;5131791;27;20491;-46
2024/03/07 06:03:39;;;;;;;13.63;6.93;;;;;;;7.43;90.36;100257.69;5132457;27;20047;-45
2024/03/07 06:06:11;;;;;;;14.02;7.25;;;;;;;7.40;89.46;100256.03;5131664;27;20365;-46
2024/03/07 06:08:41;;;;;;;13.57;7.68;;;;;;;7.33;88.14;100257.25;5132032;27;20055;-45
2024/03/07 06:11:10;;;;;;;14.88;8.10;;;;;;;7.37;87.45;100269.47;5132020;27;20389;-46
2024/03/07 06:13:38;;;;;;;12.65;6.32;;;;;;;7.43;86.39;100265.66;5132136;27;20043;-45
2024/03/07 06:16:07;;;;;;;21.23;6.70;;;;;;;7.38;86.54;100260.56;5131971;27;20039;-46
2024/03/07 06:18:35;;;;;;;9.93;5.43;;;;;;;7.36;83.86;100256.28;5133878;27;20075;-47
2024/03/07 06:21:06;;;;;;;10.15;5.95;;;;;;;7.57;83.97;100267.66;5131735;27;20461;-47
2024/03/07 06:23:34;;;;;;;10.82;5.97;;;;;;;7.57;83.92;100265.88;5131463;27;20039;-45
2024/03/07 06:26:12;;;;;;;8.40;5.10;;;;;;;7.45;83.19;100269.97;5131499;27;20384;-45
2024/03/07 06:28:40;;;;;;;10.25;5.72;;;;;;;7.56;82.16;100272.13;5131426;27;20051;-43
2024/03/07 06:31:09;;;;;;;6.82;4.60;;;;;;;7.38;82.10;100270.31;5134094;27;20047;-46
2024/03/07 06:33:37;;;;;;;8.52;5.43;;;;;;;7.37;82.41;100277.44;5135957;27;20043;-46
2024/03/07 06:36:08;;;;;;;9.18;5.63;;;;;;;7.37;81.53;100276.56;5135696;27;20484;-47
2024/03/07 06:38:37;;;;;;;11.65;5.80;;;;;;;7.47;82.28;100276.06;5133679;27;20457;-43
2024/03/07 06:41:05;;;;;;;10.07;5.78;;;;;;;7.62;82.06;100278.91;5134559;27;20503;-45
2024/03/07 06:43:34;;;;;;;12.00;6.50;;;;;;;7.60;82.76;100286.94;5135036;27;20075;-43
2024/03/07 06:46:02;;;;;;;10.43;5.63;;;;;;;7.55;83.06;100288.97;5135047;27;20043;-44
2024/03/07 06:48:31;;;;;;;9.80;5.93;;;;;;;7.44;82.59;100285.97;5132367;27;20047;-45
2024/03/07 06:50:59;;;;;;;11.77;6.05;;;;;;;7.35;84.33;100283.75;5134535;27;20047;-45
2024/03/07 06:53:29;;;;;;;9.20;5.68;;;;;;;7.63;83.30;100285.97;5134807;27;20070;-44
2024/03/07 06:55:58;;;;;;;10.95;6.20;;;;;;;7.59;83.35;100284.38;5134553;27;20039;-44
2024/03/07 06:58:26;;;;;;;9.30;5.38;;;;;;;7.48;81.94;100292.84;5133111;27;20075;-44
2024/03/07 07:01:00;;;;;;;9.45;5.72;;;;;;;7.59;83.26;100300.31;5134396;27;20075;-44
2024/03/07 07:03:29;;;;;;;10.32;6.28;;;;;;;7.59;82.89;100295.84;5134922;27;20049;-45
2024/03/07 07:05:57;;;;;;;10.32;6.30;;;;;;;7.61;82.22;100295.78;5135194;27;20043;-43
2024/03/07 07:08:25;;;;;;;11.27;5.97;;;;;;;7.71;82.24;100302.38;5132717;27;20116;-44
2024/03/07 07:10:55;;;;;;;15.15;6.30;;;;;;;7.85;81.22;100299.94;5134661;27;20096;-44
2024/03/07 07:13:24;;;;;;;10.18;6.22;;;;;;;7.73;81.43;100297.88;5134798;27;20047;-44
2024/03/07 07:15:53;;;;;;;10.82;6.32;;;;;;;7.79;80.82;100308.19;5134560;27;20043;-44
2024/03/07 07:18:23;;;;;;;10.90;5.78;;;;;;;7.46;80.69;100305.34;5132390;27;20631;-48
2024/03/07 07:20:52;;;;;;;8.13;4.80;;;;;;;7.49;79.61;100309.63;5134539;27;20047;-43
2024/03/07 07:23:21;;;;;;;9.48;6.05;;;;;;;7.72;79.66;100306.75;5134699;27;20635;-43
2024/03/07 07:25:49;;;;;;;9.45;5.38;;;;;;;7.40;78.89;100311.78;5139968;27;20043;-44
2024/03/07 07:28:19;;;;;;;9.15;5.53;;;;;;;7.59;79.24;100311.78;5139276;27;20047;-43
2024/03/07 07:30:48;;;;;;;9.15;5.25;;;;;;;7.72;78.55;100312.06;5140933;27;20075;-43
2024/03/07 07:33:17;;;;;;;10.48;5.55;;;;;;;7.84;78.53;100306.19;5145276;27;20046;-44
2024/03/07 07:35:46;;;;;;;8.30;5.43;;;;;;;7.79;77.51;100307.31;5150528;27;20038;-44
2024/03/07 07:38:14;;;;;;;10.85;5.22;;;;;;;7.88;77.59;100313.06;5137360;27;20661;-44
2024/03/07 07:40:44;;;;;;;11.93;5.80;;;;;;;7.90;76.81;100313.84;5134147;27;20043;-45
2024/03/07 07:43:13;;;;;;;8.90;5.15;;;;;;;7.89;76.72;100319.22;5133069;27;20100;-44
2024/03/07 07:45:54;;;;;;;9.43;5.43;;;;;;;7.90;77.16;100320.94;5134170;27;20043;-44
2024/03/07 07:48:22;;;;;;;11.60;5.82;;;;;;;7.99;76.31;100323.16;5131695;27;20515;-44
2024/03/07 07:50:52;;;;;;;7.68;5.28;;;;;;;7.97;77.16;100317.06;5133867;27;20134;-43
2024/03/07 07:53:20;;;;;;;10.80;5.88;;;;;;;8.03;76.96;100328.25;5133903;27;20122;-44
2024/03/07 07:55:49;;;;;;;10.50;5.32;;;;;;;7.99;76.51;100324.00;5133830;27;20051;-45
2024/03/07 07:58:17;;;;;;;10.85;5.88;;;;;;;7.99;75.52;100321.34;5132341;27;20434;-45
2024/03/07 08:00:48;;;;;;;9.70;5.15;;;;;;;7.96;75.14;100331.28;5133337;27;20773;-44
2024/03/07 08:03:19;;;;;;;9.10;5.40;;;;;;;8.01;75.51;100324.81;5133679;27;20139;-45
2024/03/07 08:05:47;;;;;;;9.15;5.25;;;;;;;7.84;76.03;100338.03;5133263;27;20154;-43
2024/03/07 08:08:18;;;;;;;8.88;5.15;;;;;;;7.81;74.58;100340.81;5131417;27;20543;-44
2024/03/07 08:10:47;;;;;;;8.50;5.22;;;;;;;7.79;75.64;100333.88;5133531;27;20047;-45
2024/03/07 08:13:16;;;;;;;9.07;4.95;;;;;;;7.97;74.85;100328.53;5133544;27;20130;-44
2024/03/07 08:15:44;;;;;;;7.57;4.68;;;;;;;7.88;73.39;100336.09;5133533;27;20118;-44
2024/03/07 08:18:12;;;;;;;8.68;5.07;;;;;;;7.95;74.48;100334.88;5131630;27;20160;-43
2024/03/07 08:20:43;;;;;;;6.68;4.20;;;;;;;7.89;73.68;100341.31;5132862;27;20180;-42
2024/03/07 08:23:12;;;;;;;6.90;4.68;;;;;;;7.97;74.05;100338.31;5133301;27;20400;-44
2024/03/07 08:25:41;;;;;;;7.40;4.63;;;;;;;8.03;73.84;100344.19;5133425;27;20434;-46
2024/03/07 08:28:09;;;;;;;9.30;4.60;;;;;;;7.78;73.98;100345.44;5132109;27;20050;-44
2024/03/07 08:30:37;;;;;;;6.97;4.50;;;;;;;7.93;73.63;100340.25;5133413;27;20139;-43
2024/03/07 08:33:05;;;;;;;6.90;4.40;;;;;;;7.89;72.55;100351.94;5133681;27;20400;-43
2024/03/07 08:35:35;;;;;;;6.90;4.30;;;;;;;7.84;72.73;100353.13;5133723;27;20044;-44
2024/03/07 08:38:05;;;;;;;8.55;5.22;;;;;;;8.08;72.13;100357.25;5130979;27;20492;-43
2024/03/07 08:40:33;;;;;;;7.30;4.60;;;;;;;7.97;71.83;100359.56;5132461;27;20043;-44
2024/03/07 08:43:03;;;;;;;7.10;4.18;;;;;;;7.79;71.15;100355.97;5132815;27;20047;-43
2024/03/07 08:45:33;;;;;;;6.68;4.25;;;;;;;7.95;71.96;100358.78;5132630;27;20054;-43
2024/03/07 08:48:04;;;;;;;9.02;4.45;;;;;;;8.06;71.94;100363.56;5130953;27;20050;-45
2024/03/07 08:50:34;;;;;;;6.85;3.92;;;;;;;7.92;71.43;100367.75;5132519;27;20087;-42
2024/03/07 08:53:04;;;;;;;6.72;4.30;;;;;;;7.92;71.58;100362.44;5132390;27;20055;-44
2024/03/07 08:55:35;;;;;;;6.22;4.53;;;;;;;7.88;72.17;100360.00;5132283;27;20047;-43
2024/03/07 08:58:06;;;;;;;6.35;3.80;;;;;;;7.88;71.18;100367.97;5130440;27;20130;-42
2024/03/07 09:00:36;;;;;;;7.57;3.88;;;;;;;7.78;71.29;100370.19;5131869;27;20058;-43
2024/03/07 09:03:09;;;;;;;6.22;4.35;;;;;;;7.90;71.70;100374.91;5132497;27;20058;-44
2024/03/07 09:05:40;;;;;;;6.60;4.35;;;;;;;7.83;71.43;100373.50;5132297;27;20046;-43
2024/03/07 09:08:09;;;;;;;5.35;4.00;;;;;;;7.84;71.05;100367.25;5130671;27;20039;-44
2024/03/07 09:10:41;;;;;;;7.18;4.00;;;;;;;7.90;71.64;100369.59;5131738;27;20042;-44
2024/03/07 09:13:10;;;;;;;6.93;4.72;;;;;;;8.13;70.77;100360.56;5131901;27;20454;-43
2024/03/07 09:15:39;;;;;;;7.00;4.30;;;;;;;8.14;70.72;100366.72;5132678;27;20571;-43
2024/03/07 09:18:08;;;;;;;9.88;4.63;;;;;;;8.19;70.58;100365.56;5130262;27;20054;-44
2024/03/07 09:20:37;;;;;;;7.25;4.70;;;;;;;8.24;70.80;100375.97;5131589;27;20053;-43
2024/03/07 09:23:06;;;;;;;6.72;4.55;;;;;;;7.96;70.87;100374.63;5131995;27;20043;-44
2024/03/07 09:25:34;;;;;;;8.27;4.13;;;;;;;7.94;70.93;100380.97;5131923;27;20503;-44
2024/03/07 09:28:05;;;;;;;6.97;4.72;;;;;;;8.12;70.99;100376.56;5130073;27;20054;-48
2024/03/07 09:30:38;;;;;;;6.30;4.13;;;;;;;8.22;71.07;100385.81;5131587;27;20066;-45
2024/03/07 09:33:10;;;;;;;7.07;4.43;;;;;;;8.03;70.25;100386.72;5131927;27;20498;-47
2024/03/07 09:35:38;;;;;;;7.88;4.70;;;;;;;8.15;70.46;100384.38;5132052;27;20043;-44
2024/03/07 09:38:07;;;;;;;9.65;5.05;;;;;;;8.19;70.37;100380.63;5129986;27;20051;-44
2024/03/07 09:40:35;;;;;;;8.55;5.20;;;;;;;8.17;70.51;100390.50;5130998;27;20509;-44
2024/03/07 09:43:07;;;;;;;8.15;4.60;;;;;;;8.16;71.15;100383.44;5131133;27;20051;-44
2024/03/07 09:45:37;;;;;;;9.63;5.78;;;;;;;8.44;71.15;100383.00;5130155;27;20611;-45
2024/03/07 09:48:08;;;;;;;8.02;5.05;;;;;;;8.51;70.06;100385.28;5129671;27;20100;-43
2024/03/07 09:50:38;;;;;;;7.40;5.05;;;;;;;8.42;69.55;100388.41;5130791;27;20476;-43
2024/03/07 09:53:06;;;;;;;7.68;5.18;;;;;;;8.39;69.76;100379.69;5130577;27;20088;-43
2024/03/07 09:55:34;;;;;;;8.00;4.95;;;;;;;8.15;70.37;100389.69;5131735;27;20446;-44
2024/03/07 09:58:06;;;;;;;8.52;5.30;;;;;;;8.14;70.17;100383.53;5130113;27;20074;-44
2024/03/07 10:00:37;;;;;;;8.57;5.43;;;;;;;8.22;70.09;100385.81;5110558;28;20083;-44
2024/03/07 10:03:08;;;;;;;8.65;5.55;;;;;;;8.39;70.01;100393.84;5110739;28;20060;-46
2024/03/07 10:05:39;;;;;;;11.02;5.97;;;;;;;8.20;70.43;100387.66;5119833;27;21001;-45
2024/03/07 10:08:07;;;;;;;8.63;5.07;;;;;;;8.25;70.31;100393.63;5129402;27;20074;-44
2024/03/07 10:10:36;;;;;;;13.32;5.82;;;;;;;8.18;70.32;100389.53;5130762;27;20100;-45
2024/03/07 10:13:08;;;;;;;8.63;5.47;;;;;;;8.20;69.82;100385.00;5131253;27;20453;-44
2024/03/07 10:15:37;;;;;;;12.00;5.85;;;;;;;8.21;70.06;100400.06;5130961;27;20051;-45
2024/03/07 10:18:09;;;;;;;8.23;5.97;;;;;;;8.01;70.03;100401.88;5129153;27;20790;-44
2024/03/07 10:20:39;;;;;;;11.95;6.53;;;;;;;8.01;70.82;100387.72;5130870;27;20070;-43
2024/03/07 10:23:08;;;;;;;9.43;6.05;;;;;;;8.17;70.43;100393.16;5130937;28;20100;-45
2024/03/07 10:25:38;;;;;;;9.65;5.95;;;;;;;8.07;70.86;100397.19;5131309;28;20065;-45
2024/03/07 10:28:10;;;;;;;10.13;6.32;;;;;;;8.24;70.21;100394.56;5129494;28;20477;-45
2024/03/07 10:30:44;;;;;;;9.35;6.20;;;;;;;8.24;70.79;100403.41;5131178;28;20050;-45
2024/03/07 10:33:15;;;;;;;12.30;6.20;;;;;;;8.39;70.11;100407.13;5130851;28;20084;-43
2024/03/07 10:35:43;;;;;;;10.05;6.38;;;;;;;8.15;70.35;100405.66;5130789;28;20190;-43
2024/03/07 10:38:12;;;;;;;8.65;5.70;;;;;;;8.16;70.16;100397.59;5129335;28;20065;-45
2024/03/07 10:40:43;;;;;;;8.85;6.07;;;;;;;8.19;70.05;100402.75;5130749;28;20043;-43
2024/03/07 10:43:14;;;;;;;9.00;5.88;;;;;;;8.20;70.26;100404.50;5130929;28;20159;-43
2024/03/07 10:45:46;;;;;;;10.05;6.38;;;;;;;8.35;70.45;100402.91;5113332;28;20047;-44
2024/03/07 10:48:19;;;;;;;10.30;6.50;;;;;;;8.46;69.97;100405.06;5129070;28;20062;-45
2024/03/07 10:50:59;;;;;;;9.02;6.45;;;;;;;8.27;70.01;100403.25;5130703;28;20044;-44
2024/03/07 10:53:33;;;;;;;10.60;6.25;;;;;;;8.45;70.20;100412.16;5130789;28;20051;-43
2024/03/07 10:56:25;;;;;;;9.95;6.30;;;;;;;8.51;69.66;100408.38;5130898;28;20460;-44
2024/03/07 10:59:00;;;;;;;10.10;6.13;;;;;;;8.55;69.44;100413.44;5128642;28;20047;-46
2024/03/07 11:01:33;;;;;;;10.68;6.68;;;;;;;8.20;70.35;100407.16;5130594;28;20059;-43
2024/03/07 11:04:04;;;;;;;10.80;6.00;;;;;;;8.24;70.09;100421.16;5130971;28;20430;-43
2024/03/07 11:06:34;;;;;;;10.75;6.25;;;;;;;8.25;69.71;100428.19;5130968;28;20047;-46
2024/03/07 11:09:09;;;;;;;10.32;6.28;;;;;;;8.14;70.02;100415.41;5129204;28;20051;-45
2024/03/07 11:11:40;;;;;;;10.90;6.88;;;;;;;8.32;69.80;100408.38;5129917;28;20050;-44
2024/03/07 11:14:12;;;;;;;10.85;6.82;;;;;;;8.20;69.82;100409.81;5130878;27;20047;-44
2024/03/07 11:16:42;;;;;;;9.88;6.63;;;;;;;8.18;69.82;100408.16;5132397;27;20043;-47
2024/03/07 11:19:36;;;;;;;10.30;6.35;;;;;;;8.17;70.80;100398.47;5132864;27;20515;-42
2024/03/07 11:22:15;;;;;;;10.73;6.53;;;;;;;8.30;69.90;100407.59;5112070;27;20054;-45
2024/03/07 11:24:45;;;;;;;12.48;7.07;;;;;;;8.47;70.40;100404.97;5134856;27;20100;-44
2024/03/07 11:27:14;;;;;;;10.02;6.72;;;;;;;8.36;70.13;100407.28;5134958;27;20134;-45
2024/03/07 11:29:52;;;;;;;10.05;6.47;;;;;;;8.48;69.83;100404.03;5133178;27;20063;-44
2024/03/07 11:32:22;;;;;;;10.20;6.15;;;;;;;8.47;69.90;100402.31;5134407;27;20051;-43
2024/03/07 11:34:55;;;;;;;9.48;6.32;;;;;;;8.55;69.36;100397.47;5134195;27;20509;-43
2024/03/07 11:37:40;;;;;;;11.02;6.55;;;;;;;8.51;69.69;100397.72;5134555;27;20043;-44